createdAt,value
2023-05-24T00:00:29.988Z,12.72
2023-05-24T00:03:17.013Z,12.71
2023-05-24T00:06:03.973Z,12.68
2023-05-24T00:08:50.992Z,12.64
2023-05-24T00:11:31.394Z,12.60
2023-05-24T00:14:17.968Z,12.60
2023-05-24T00:16:58.755Z,12.58
2023-05-24T00:19:45.956Z,12.66
2023-05-24T00:22:32.967Z,12.64
2023-05-24T00:25:19.917Z,12.63
2023-05-24T00:28:07.005Z,12.73
2023-05-24T00:30:47.923Z,12.70
2023-05-24T00:33:34.910Z,12.53
2023-05-24T00:36:21.947Z,12.48
2023-05-24T00:39:02.310Z,12.53
2023-05-24T00:41:48.916Z,12.57
2023-05-24T00:44:29.945Z,12.49
2023-05-24T00:47:16.977Z,12.53
2023-05-24T00:49:57.677Z,12.60
2023-05-24T00:52:44.976Z,12.65
2023-05-24T00:55:31.952Z,12.72
2023-05-24T00:58:12.070Z,12.72
2023-05-24T01:01:00.855Z,12.79
2023-05-24T01:03:42.335Z,12.79
2023-05-24T01:06:29.964Z,12.78
2023-05-24T01:09:42.875Z,12.83
2023-05-24T01:13:05.912Z,12.83
2023-05-24T01:16:05.984Z,12.82
2023-05-24T01:18:58.903Z,12.78
2023-05-24T01:22:13.975Z,12.70
2023-05-24T01:25:24.913Z,12.72
2023-05-24T01:28:13.884Z,12.69
2023-05-24T01:31:02.925Z,12.69
2023-05-24T01:33:49.182Z,12.71
2023-05-24T01:36:35.953Z,12.86
2023-05-24T01:39:18.054Z,12.84
2023-05-24T01:42:29.904Z,12.93
2023-05-24T01:45:22.956Z,13.05
2023-05-24T01:48:33.861Z,13.08
2023-05-24T01:51:15.929Z,12.95
2023-05-24T01:54:05.861Z,12.92
2023-05-24T01:56:53.855Z,13.01
2023-05-24T01:59:41.922Z,12.86
2023-05-24T02:02:22.144Z,12.78
2023-05-24T02:05:08.801Z,12.73
2023-05-24T02:07:55.867Z,12.66
2023-05-24T02:10:39.406Z,12.78
2023-05-24T02:13:26.828Z,12.75
2023-05-24T02:16:07.289Z,12.72
2023-05-24T02:18:54.835Z,12.87
2023-05-24T02:21:35.207Z,12.86
2023-05-24T02:24:21.780Z,12.85
2023-05-24T02:27:02.691Z,12.86
2023-05-24T02:29:49.798Z,12.93
2023-05-24T02:32:30.181Z,13.02
2023-05-24T02:35:16.771Z,12.93
2023-05-24T02:38:12.787Z,12.98
2023-05-24T02:40:59.783Z,12.92
2023-05-24T02:43:39.956Z,12.94
2023-05-24T02:46:26.889Z,13.02
2023-05-24T02:49:07.005Z,13.01
2023-05-24T02:51:53.771Z,13.14
2023-05-24T02:54:40.777Z,13.15
2023-05-24T02:57:28.823Z,13.16
2023-05-24T03:00:15.721Z,13.32
2023-05-24T03:03:04.862Z,13.32
2023-05-24T03:05:51.752Z,13.37
2023-05-24T03:08:38.717Z,13.32
2023-05-24T03:11:22.381Z,13.37
2023-05-24T03:14:10.746Z,13.45
2023-05-24T03:16:57.739Z,13.35
2023-05-24T03:19:38.205Z,13.35
2023-05-24T03:22:25.716Z,13.39
2023-05-24T03:25:08.800Z,13.50
2023-05-24T03:27:55.765Z,13.57
2023-05-24T03:30:36.121Z,13.60
2023-05-24T03:33:22.722Z,13.51
2023-05-24T03:36:04.346Z,13.56
2023-05-24T03:38:50.687Z,13.61
2023-05-24T03:41:31.370Z,13.70
2023-05-24T03:44:18.740Z,13.72
2023-05-24T03:47:05.844Z,13.72
2023-05-24T03:49:45.634Z,13.68
2023-05-24T03:52:26.477Z,13.79
2023-05-24T03:55:13.659Z,13.83
2023-05-24T03:57:56.083Z,13.81
2023-05-24T04:00:42.917Z,13.97
2023-05-24T04:03:30.044Z,13.89
2023-05-24T04:06:09.610Z,13.95
2023-05-24T04:08:56.702Z,14.01
2023-05-24T04:11:43.636Z,14.17
2023-05-24T04:14:24.017Z,14.11
2023-05-24T04:17:12.739Z,14.05
2023-05-24T04:20:00.661Z,14.28
2023-05-24T04:22:40.845Z,14.37
2023-05-24T04:25:27.620Z,14.57
2023-05-24T04:28:08.572Z,14.37
2023-05-24T04:30:55.704Z,14.48
2023-05-24T04:33:35.737Z,14.65
2023-05-24T04:36:24.678Z,14.67
2023-05-24T04:39:11.708Z,14.78
2023-05-24T04:41:59.619Z,14.98
2023-05-24T04:44:46.585Z,15.10
2023-05-24T04:47:27.061Z,15.37
2023-05-24T04:50:13.638Z,15.70
2023-05-24T04:53:00.610Z,15.66
2023-05-24T04:55:40.650Z,16.08
2023-05-24T04:58:27.607Z,16.48
2023-05-24T05:01:15.670Z,17.02
2023-05-24T05:04:02.609Z,17.05
2023-05-24T05:06:44.727Z,17.07
2023-05-24T05:09:31.561Z,17.39
2023-05-24T05:12:18.571Z,17.86
2023-05-24T05:14:59.004Z,17.67
2023-05-24T05:17:45.661Z,17.68
2023-05-24T05:20:26.160Z,17.68
2023-05-24T05:23:12.574Z,17.90
2023-05-24T05:25:59.564Z,18.33
2023-05-24T05:28:39.736Z,18.56
2023-05-24T05:31:26.551Z,18.97
2023-05-24T05:34:09.841Z,19.67
2023-05-24T05:36:56.518Z,19.45
2023-05-24T05:39:36.694Z,19.85
2023-05-24T05:42:23.540Z,20.64
2023-05-24T05:45:03.648Z,21.37
2023-05-24T05:47:50.545Z,22.63
2023-05-24T05:50:30.713Z,22.97
2023-05-24T05:53:17.518Z,22.29
2023-05-24T05:56:04.524Z,22.52
2023-05-24T05:58:44.934Z,23.78
2023-05-24T06:01:31.501Z,24.79
2023-05-24T06:04:25.669Z,24.71
2023-05-24T06:07:12.466Z,24.67
2023-05-24T06:09:59.552Z,25.44
2023-05-24T06:12:40.687Z,26.95
2023-05-24T06:15:29.505Z,27.84
2023-05-24T06:18:09.890Z,29.25
2023-05-24T06:20:56.523Z,28.09
2023-05-24T06:23:38.010Z,25.90
2023-05-24T06:26:24.542Z,26.29
2023-05-24T06:29:04.923Z,24.89
2023-05-24T06:31:51.697Z,24.40
2023-05-24T06:34:31.951Z,23.72
2023-05-24T06:37:21.494Z,22.63
2023-05-24T06:40:08.512Z,22.33
2023-05-24T06:42:55.490Z,22.30
2023-05-24T06:45:49.430Z,23.75
2023-05-24T06:48:36.620Z,23.35
2023-05-24T06:51:16.601Z,24.12
2023-05-24T06:54:03.459Z,24.33
2023-05-24T06:56:43.659Z,23.70
2023-05-24T06:59:30.446Z,23.02
2023-05-24T07:02:10.730Z,21.39
2023-05-24T07:04:57.521Z,20.67
2023-05-24T07:07:44.499Z,20.57
2023-05-24T07:10:24.796Z,20.86
2023-05-24T07:13:11.430Z,22.30
2023-05-24T07:15:51.824Z,23.94
2023-05-24T07:18:38.474Z,25.62
2023-05-24T07:21:25.435Z,25.93
2023-05-24T07:24:14.729Z,26.32
2023-05-24T07:26:57.716Z,26.70
2023-05-24T07:29:46.293Z,26.79
